sensor_id;sensor_type;location;lat;lon;timestamp;temperature;humidity
71047;SHT31;58703;48.978;8.982;2022-11-15T00:00:48;6.90;98.50
71047;SHT31;58703;48.978;8.982;2022-11-15T00:03:19;6.89;98.34
71047;SHT31;58703;48.978;8.982;2022-11-15T00:05:46;6.83;98.39
71047;SHT31;58703;48.978;8.982;2022-11-15T00:08:13;6.80;98.49
71047;SHT31;58703;48.978;8.982;2022-11-15T00:10:38;6.83;98.44
71047;SHT31;58703;48.978;8.982;2022-11-15T00:13:14;6.75;98.60
71047;SHT31;58703;48.978;8.982;2022-11-15T00:15:40;6.66;98.89
71047;SHT31;58703;48.978;8.982;2022-11-15T00:18:12;6.75;98.98
71047;SHT31;58703;48.978;8.982;2022-11-15T00:20:38;6.72;98.80
71047;SHT31;58703;48.978;8.982;2022-11-15T00:23:05;6.65;98.94
71047;SHT31;58703;48.978;8.982;2022-11-15T00:25:32;6.53;98.98
71047;SHT31;58703;48.978;8.982;2022-11-15T00:27:59;6.41;98.98
71047;SHT31;58703;48.978;8.982;2022-11-15T00:30:25;6.34;99.02
71047;SHT31;58703;48.978;8.982;2022-11-15T00:32:51;6.26;99.29
71047;SHT31;58703;48.978;8.982;2022-11-15T00:35:17;6.14;98.74
71047;SHT31;58703;48.978;8.982;2022-11-15T00:37:43;6.00;98.85
71047;SHT31;58703;48.978;8.982;2022-11-15T00:40:10;5.78;99.60
71047;SHT31;58703;48.978;8.982;2022-11-15T00:42:38;5.74;99.74
71047;SHT31;58703;48.978;8.982;2022-11-15T00:45:03;5.63;99.62
71047;SHT31;58703;48.978;8.982;2022-11-15T00:47:29;5.46;99.75
71047;SHT31;58703;48.978;8.982;2022-11-15T00:49:55;5.36;99.87
71047;SHT31;58703;48.978;8.982;2022-11-15T00:52:20;5.25;99.99
71047;SHT31;58703;48.978;8.982;2022-11-15T00:54:46;5.20;99.99
71047;SHT31;58703;48.978;8.982;2022-11-15T00:57:12;5.25;99.99
71047;SHT31;58703;48.978;8.982;2022-11-15T00:59:38;5.20;99.99
71047;SHT31;58703;48.978;8.982;2022-11-15T01:02:03;5.26;99.99
71047;SHT31;58703;48.978;8.982;2022-11-15T01:04:29;5.15;99.99
71047;SHT31;58703;48.978;8.982;2022-11-15T01:06:54;5.18;99.99
71047;SHT31;58703;48.978;8.982;2022-11-15T01:09:20;5.04;99.99
71047;SHT31;58703;48.978;8.982;2022-11-15T01:11:47;5.01;99.99
71047;SHT31;58703;48.978;8.982;2022-11-15T01:14:12;5.04;99.99
71047;SHT31;58703;48.978;8.982;2022-11-15T01:16:39;5.13;99.99
71047;SHT31;58703;48.978;8.982;2022-11-15T01:19:05;5.28;99.99
71047;SHT31;58703;48.978;8.982;2022-11-15T01:21:30;5.18;99.99
71047;SHT31;58703;48.978;8.982;2022-11-15T01:23:57;4.99;99.99
71047;SHT31;58703;48.978;8.982;2022-11-15T01:26:23;4.82;99.99
71047;SHT31;58703;48.978;8.982;2022-11-15T01:28:51;4.72;99.99
71047;SHT31;58703;48.978;8.982;2022-11-15T01:31:19;4.64;99.99
71047;SHT31;58703;48.978;8.982;2022-11-15T01:33:46;4.56;99.99
71047;SHT31;58703;48.978;8.982;2022-11-15T01:36:18;4.51;99.99
71047;SHT31;58703;48.978;8.982;2022-11-15T01:38:44;4.51;99.99
71047;SHT31;58703;48.978;8.982;2022-11-15T01:41:18;4.43;99.99
71047;SHT31;58703;48.978;8.982;2022-11-15T01:43:48;4.56;99.99
71047;SHT31;58703;48.978;8.982;2022-11-15T01:46:35;4.51;99.99
71047;SHT31;58703;48.978;8.982;2022-11-15T01:49:13;4.48;99.99
71047;SHT31;58703;48.978;8.982;2022-11-15T01:51:39;4.51;99.99
71047;SHT31;58703;48.978;8.982;2022-11-15T01:54:09;4.44;99.99
71047;SHT31;58703;48.978;8.982;2022-11-15T01:56:59;4.47;99.99
71047;SHT31;58703;48.978;8.982;2022-11-15T01:59:25;4.53;99.99
71047;SHT31;58703;48.978;8.982;2022-11-15T02:01:52;4.62;99.99
71047;SHT31;58703;48.978;8.982;2022-11-15T02:04:23;4.69;99.99
71047;SHT31;58703;48.978;8.982;2022-11-15T02:06:50;4.75;99.99
71047;SHT31;58703;48.978;8.982;2022-11-15T02:09:16;4.79;99.99
71047;SHT31;58703;48.978;8.982;2022-11-15T02:11:43;4.79;99.99
71047;SHT31;58703;48.978;8.982;2022-11-15T02:14:10;4.74;99.99
71047;SHT31;58703;48.978;8.982;2022-11-15T02:16:59;4.71;99.99
71047;SHT31;58703;48.978;8.982;2022-11-15T02:31:14;4.72;99.99
71047;SHT31;58703;48.978;8.982;2022-11-15T02:34:05;4.71;99.99
71047;SHT31;58703;48.978;8.982;2022-11-15T02:37:03;4.64;99.99
71047;SHT31;58703;48.978;8.982;2022-11-15T02:39:54;4.75;99.99
71047;SHT31;58703;48.978;8.982;2022-11-15T02:42:32;4.74;99.99
71047;SHT31;58703;48.978;8.982;2022-11-15T02:45:32;4.79;99.99
71047;SHT31;58703;48.978;8.982;2022-11-15T02:48:01;4.91;99.99
71047;SHT31;58703;48.978;8.982;2022-11-15T02:50:32;5.12;99.99
71047;SHT31;58703;48.978;8.982;2022-11-15T02:52:59;5.12;99.99
71047;SHT31;58703;48.978;8.982;2022-11-15T02:55:32;5.36;99.99
71047;SHT31;58703;48.978;8.982;2022-11-15T03:00:34;5.25;99.99
71047;SHT31;58703;48.978;8.982;2022-11-15T03:03:40;5.29;99.99
71047;SHT31;58703;48.978;8.982;2022-11-15T03:06:25;5.42;99.99
71047;SHT31;58703;48.978;8.982;2022-11-15T03:09:07;5.36;99.99
71047;SHT31;58703;48.978;8.982;2022-11-15T03:11:38;5.33;99.99
71047;SHT31;58703;48.978;8.982;2022-11-15T03:17:27;5.23;99.99
71047;SHT31;58703;48.978;8.982;2022-11-15T03:19:56;5.19;99.99
71047;SHT31;58703;48.978;8.982;2022-11-15T03:22:26;5.18;99.99
71047;SHT31;58703;48.978;8.982;2022-11-15T03:24:59;5.19;99.99
71047;SHT31;58703;48.978;8.982;2022-11-15T03:27:30;5.19;99.99
71047;SHT31;58703;48.978;8.982;2022-11-15T03:30:02;5.15;99.99
71047;SHT31;58703;48.978;8.982;2022-11-15T03:32:31;5.11;99.99
71047;SHT31;58703;48.978;8.982;2022-11-15T03:35:05;5.12;99.99
71047;SHT31;58703;48.978;8.982;2022-11-15T03:37:40;5.33;99.99
71047;SHT31;58703;48.978;8.982;2022-11-15T03:40:09;5.26;99.99
71047;SHT31;58703;48.978;8.982;2022-11-15T03:42:41;5.44;99.99
71047;SHT31;58703;48.978;8.982;2022-11-15T03:45:14;5.36;99.99
71047;SHT31;58703;48.978;8.982;2022-11-15T03:47:48;5.36;99.99
71047;SHT31;58703;48.978;8.982;2022-11-15T03:50:19;5.46;99.99
71047;SHT31;58703;48.978;8.982;2022-11-15T03:52:48;5.50;99.99
71047;SHT31;58703;48.978;8.982;2022-11-15T03:55:20;5.44;99.99
71047;SHT31;58703;48.978;8.982;2022-11-15T03:57:49;5.50;99.99
71047;SHT31;58703;48.978;8.982;2022-11-15T04:00:15;5.67;99.99
71047;SHT31;58703;48.978;8.982;2022-11-15T04:02:41;5.81;99.99
71047;SHT31;58703;48.978;8.982;2022-11-15T04:05:07;5.95;99.99
71047;SHT31;58703;48.978;8.982;2022-11-15T04:07:33;5.87;99.99
71047;SHT31;58703;48.978;8.982;2022-11-15T04:09:59;6.01;99.99
71047;SHT31;58703;48.978;8.982;2022-11-15T04:12:31;5.93;99.99
71047;SHT31;58703;48.978;8.982;2022-11-15T04:14:58;5.83;99.99
71047;SHT31;58703;48.978;8.982;2022-11-15T04:17:46;5.87;99.99
71047;SHT31;58703;48.978;8.982;2022-11-15T04:20:20;5.94;99.99
71047;SHT31;58703;48.978;8.982;2022-11-15T04:23:12;6.07;99.99
71047;SHT31;58703;48.978;8.982;2022-11-15T04:26:02;6.18;99.99
71047;SHT31;58703;48.978;8.982;2022-11-15T04:28:28;6.28;99.99
71047;SHT31;58703;48.978;8.982;2022-11-15T04:30:53;6.03;99.99
71047;SHT31;58703;48.978;8.982;2022-11-15T04:33:19;6.04;99.97
71047;SHT31;58703;48.978;8.982;2022-11-15T04:35:44;5.95;99.99
71047;SHT31;58703;48.978;8.982;2022-11-15T04:38:30;6.01;99.99
71047;SHT31;58703;48.978;8.982;2022-11-15T04:40:57;5.91;99.78
71047;SHT31;58703;48.978;8.982;2022-11-15T04:43:22;5.69;99.99
71047;SHT31;58703;48.978;8.982;2022-11-15T04:45:48;5.74;99.99
71047;SHT31;58703;48.978;8.982;2022-11-15T04:48:13;5.86;99.99
71047;SHT31;58703;48.978;8.982;2022-11-15T04:50:39;5.91;99.99
71047;SHT31;58703;48.978;8.982;2022-11-15T04:53:04;6.05;99.99
71047;SHT31;58703;48.978;8.982;2022-11-15T04:55:32;5.93;99.99
71047;SHT31;58703;48.978;8.982;2022-11-15T04:58:00;5.94;99.99
71047;SHT31;58703;48.978;8.982;2022-11-15T05:00:28;5.97;99.99
71047;SHT31;58703;48.978;8.982;2022-11-15T05:02:56;5.90;99.99
71047;SHT31;58703;48.978;8.982;2022-11-15T05:05:41;5.80;99.99
71047;SHT31;58703;48.978;8.982;2022-11-15T05:08:07;5.84;99.99
71047;SHT31;58703;48.978;8.982;2022-11-15T05:10:33;5.80;99.99
71047;SHT31;58703;48.978;8.982;2022-11-15T05:13:00;5.78;99.99
71047;SHT31;58703;48.978;8.982;2022-11-15T05:15:26;5.74;99.99
71047;SHT31;58703;48.978;8.982;2022-11-15T05:17:57;5.69;99.99
71047;SHT31;58703;48.978;8.982;2022-11-15T05:20:22;5.70;99.99
71047;SHT31;58703;48.978;8.982;2022-11-15T05:22:49;5.75;99.99
71047;SHT31;58703;48.978;8.982;2022-11-15T05:25:15;5.70;99.99
71047;SHT31;58703;48.978;8.982;2022-11-15T05:27:42;5.84;99.99
71047;SHT31;58703;48.978;8.982;2022-11-15T05:30:09;6.07;99.99
71047;SHT31;58703;48.978;8.982;2022-11-15T05:32:34;6.05;99.99
71047;SHT31;58703;48.978;8.982;2022-11-15T05:35:02;6.00;99.99
71047;SHT31;58703;48.978;8.982;2022-11-15T05:37:28;5.93;99.99
71047;SHT31;58703;48.978;8.982;2022-11-15T05:39:56;5.77;99.99
71047;SHT31;58703;48.978;8.982;2022-11-15T05:42:22;5.70;99.99
71047;SHT31;58703;48.978;8.982;2022-11-15T05:44:49;5.75;99.99
71047;SHT31;58703;48.978;8.982;2022-11-15T05:47:22;5.73;99.99
71047;SHT31;58703;48.978;8.982;2022-11-15T05:49:50;5.77;99.99
71047;SHT31;58703;48.978;8.982;2022-11-15T05:52:19;5.84;99.99
71047;SHT31;58703;48.978;8.982;2022-11-15T05:54:47;6.00;99.99
71047;SHT31;58703;48.978;8.982;2022-11-15T05:57:14;5.98;99.99
71047;SHT31;58703;48.978;8.982;2022-11-15T05:59:41;6.08;99.99
71047;SHT31;58703;48.978;8.982;2022-11-15T06:02:10;6.00;99.99
71047;SHT31;58703;48.978;8.982;2022-11-15T06:04:36;6.01;99.99
71047;SHT31;58703;48.978;8.982;2022-11-15T06:07:02;6.00;99.99
71047;SHT31;58703;48.978;8.982;2022-11-15T06:09:28;6.03;99.99
71047;SHT31;58703;48.978;8.982;2022-11-15T06:11:55;6.10;99.99
71047;SHT31;58703;48.978;8.982;2022-11-15T06:14:22;6.13;99.99
71047;SHT31;58703;48.978;8.982;2022-11-15T06:16:48;6.20;99.99
71047;SHT31;58703;48.978;8.982;2022-11-15T06:19:14;6.35;99.99
71047;SHT31;58703;48.978;8.982;2022-11-15T06:21:40;6.34;99.99
71047;SHT31;58703;48.978;8.982;2022-11-15T06:24:07;6.34;99.99
71047;SHT31;58703;48.978;8.982;2022-11-15T06:26:33;6.26;99.99
71047;SHT31;58703;48.978;8.982;2022-11-15T06:28:58;6.38;99.99
71047;SHT31;58703;48.978;8.982;2022-11-15T06:31:25;6.50;99.99
71047;SHT31;58703;48.978;8.982;2022-11-15T06:33:52;6.62;99.99
71047;SHT31;58703;48.978;8.982;2022-11-15T06:36:19;6.62;99.99
71047;SHT31;58703;48.978;8.982;2022-11-15T06:38:46;6.65;99.97
71047;SHT31;58703;48.978;8.982;2022-11-15T06:41:14;6.71;99.64
71047;SHT31;58703;48.978;8.982;2022-11-15T06:43:40;6.86;99.35
71047;SHT31;58703;48.978;8.982;2022-11-15T06:46:07;7.04;98.62
71047;SHT31;58703;48.978;8.982;2022-11-15T06:48:34;7.06;98.42
71047;SHT31;58703;48.978;8.982;2022-11-15T06:51:05;7.06;98.35
71047;SHT31;58703;48.978;8.982;2022-11-15T06:53:52;7.18;98.39
71047;SHT31;58703;48.978;8.982;2022-11-15T06:56:18;7.13;98.33
71047;SHT31;58703;48.978;8.982;2022-11-15T06:58:45;7.13;98.34
71047;SHT31;58703;48.978;8.982;2022-11-15T07:01:12;7.20;97.92
71047;SHT31;58703;48.978;8.982;2022-11-15T07:03:41;7.26;97.66
71047;SHT31;58703;48.978;8.982;2022-11-15T07:06:08;7.32;97.23
71047;SHT31;58703;48.978;8.982;2022-11-15T07:08:35;7.43;96.93
71047;SHT31;58703;48.978;8.982;2022-11-15T07:11:05;7.51;96.59
71047;SHT31;58703;48.978;8.982;2022-11-15T07:13:31;7.62;95.97
71047;SHT31;58703;48.978;8.982;2022-11-15T07:16:07;7.74;95.98
71047;SHT31;58703;48.978;8.982;2022-11-15T07:18:38;7.88;95.25
71047;SHT31;58703;48.978;8.982;2022-11-15T07:21:06;7.68;95.77
71047;SHT31;58703;48.978;8.982;2022-11-15T07:23:32;7.71;95.84
71047;SHT31;58703;48.978;8.982;2022-11-15T07:25:58;7.82;95.81
71047;SHT31;58703;48.978;8.982;2022-11-15T07:28:25;7.98;95.03
71047;SHT31;58703;48.978;8.982;2022-11-15T07:30:51;8.05;95.04
71047;SHT31;58703;48.978;8.982;2022-11-15T07:33:16;8.13;94.86
71047;SHT31;58703;48.978;8.982;2022-11-15T07:35:43;8.43;94.59
71047;SHT31;58703;48.978;8.982;2022-11-15T07:38:13;8.59;93.60
71047;SHT31;58703;48.978;8.982;2022-11-15T07:40:40;8.71;93.66
71047;SHT31;58703;48.978;8.982;2022-11-15T07:43:07;8.68;92.65
71047;SHT31;58703;48.978;8.982;2022-11-15T07:45:40;8.61;93.28
71047;SHT31;58703;48.978;8.982;2022-11-15T07:48:06;8.52;94.03
71047;SHT31;58703;48.978;8.982;2022-11-15T07:50:32;8.52;94.00
71047;SHT31;58703;48.978;8.982;2022-11-15T07:52:59;8.52;94.34
71047;SHT31;58703;48.978;8.982;2022-11-15T07:55:26;8.63;93.36
71047;SHT31;58703;48.978;8.982;2022-11-15T07:57:52;8.56;93.85
71047;SHT31;58703;48.978;8.982;2022-11-15T08:00:19;8.68;93.43
71047;SHT31;58703;48.978;8.982;2022-11-15T08:02:45;8.84;92.59
71047;SHT31;58703;48.978;8.982;2022-11-15T08:05:11;8.98;92.57
71047;SHT31;58703;48.978;8.982;2022-11-15T08:07:37;8.87;92.92
71047;SHT31;58703;48.978;8.982;2022-11-15T08:10:04;8.92;92.71
71047;SHT31;58703;48.978;8.982;2022-11-15T08:12:32;8.98;92.34
71047;SHT31;58703;48.978;8.982;2022-11-15T08:14:57;8.91;93.05
71047;SHT31;58703;48.978;8.982;2022-11-15T08:17:24;9.04;92.51
71047;SHT31;58703;48.978;8.982;2022-11-15T08:19:51;9.31;90.98
71047;SHT31;58703;48.978;8.982;2022-11-15T08:22:17;9.46;90.55
71047;SHT31;58703;48.978;8.982;2022-11-15T08:24:44;9.48;90.01
71047;SHT31;58703;48.978;8.982;2022-11-15T08:27:10;9.63;90.71
71047;SHT31;58703;48.978;8.982;2022-11-15T08:29:43;9.52;90.61
71047;SHT31;58703;48.978;8.982;2022-11-15T08:32:10;9.59;90.44
71047;SHT31;58703;48.978;8.982;2022-11-15T08:34:37;9.77;90.59
71047;SHT31;58703;48.978;8.982;2022-11-15T08:37:02;9.70;90.12
71047;SHT31;58703;48.978;8.982;2022-11-15T08:39:28;9.86;89.30
71047;SHT31;58703;48.978;8.982;2022-11-15T08:41:55;9.93;89.13
71047;SHT31;58703;48.978;8.982;2022-11-15T08:44:20;10.00;90.24
71047;SHT31;58703;48.978;8.982;2022-11-15T08:46:46;10.09;88.60
71047;SHT31;58703;48.978;8.982;2022-11-15T08:49:12;10.25;88.94
71047;SHT31;58703;48.978;8.982;2022-11-15T08:51:38;10.34;87.76
71047;SHT31;58703;48.978;8.982;2022-11-15T08:54:05;10.42;87.67
71047;SHT31;58703;48.978;8.982;2022-11-15T08:56:30;10.17;88.60
71047;SHT31;58703;48.978;8.982;2022-11-15T08:58:56;10.21;88.74
71047;SHT31;58703;48.978;8.982;2022-11-15T09:01:22;10.18;88.12
71047;SHT31;58703;48.978;8.982;2022-11-15T09:03:48;10.16;89.24
71047;SHT31;58703;48.978;8.982;2022-11-15T09:06:14;10.33;89.25
71047;SHT31;58703;48.978;8.982;2022-11-15T09:08:40;10.58;89.12
71047;SHT31;58703;48.978;8.982;2022-11-15T09:11:09;10.68;88.34
71047;SHT31;58703;48.978;8.982;2022-11-15T09:13:36;10.65;86.58
71047;SHT31;58703;48.978;8.982;2022-11-15T09:16:04;10.76;87.25
71047;SHT31;58703;48.978;8.982;2022-11-15T09:18:30;10.88;86.86
71047;SHT31;58703;48.978;8.982;2022-11-15T09:20:58;10.89;86.75
71047;SHT31;58703;48.978;8.982;2022-11-15T09:23:25;10.81;87.53
71047;SHT31;58703;48.978;8.982;2022-11-15T09:25:57;10.89;86.92
71047;SHT31;58703;48.978;8.982;2022-11-15T09:28:23;11.39;87.84
71047;SHT31;58703;48.978;8.982;2022-11-15T09:30:49;11.37;85.86
71047;SHT31;58703;48.978;8.982;2022-11-15T09:33:17;11.43;85.54
71047;SHT31;58703;48.978;8.982;2022-11-15T09:35:43;11.83;85.41
71047;SHT31;58703;48.978;8.982;2022-11-15T09:38:10;11.88;84.50
71047;SHT31;58703;48.978;8.982;2022-11-15T09:40:37;11.75;84.00
71047;SHT31;58703;48.978;8.982;2022-11-15T09:48:57;12.01;85.12
71047;SHT31;58703;48.978;8.982;2022-11-15T09:54:11;12.22;83.80
71047;SHT31;58703;48.978;8.982;2022-11-15T09:56:42;12.10;85.37
71047;SHT31;58703;48.978;8.982;2022-11-15T09:59:36;11.85;85.43
71047;SHT31;58703;48.978;8.982;2022-11-15T10:04:45;12.08;83.77
71047;SHT31;58703;48.978;8.982;2022-11-15T10:07:31;11.95;83.81
71047;SHT31;58703;48.978;8.982;2022-11-15T10:10:14;11.99;83.40
71047;SHT31;58703;48.978;8.982;2022-11-15T10:12:47;11.93;81.95
71047;SHT31;58703;48.978;8.982;2022-11-15T10:15:16;12.02;82.15
71047;SHT31;58703;48.978;8.982;2022-11-15T10:20:47;12.02;83.11
71047;SHT31;58703;48.978;8.982;2022-11-15T10:23:16;12.08;82.49
71047;SHT31;58703;48.978;8.982;2022-11-15T10:25:43;12.11;82.26
71047;SHT31;58703;48.978;8.982;2022-11-15T10:28:28;12.25;82.87
71047;SHT31;58703;48.978;8.982;2022-11-15T10:30:56;12.20;82.66
71047;SHT31;58703;48.978;8.982;2022-11-15T10:33:29;12.08;82.36
71047;SHT31;58703;48.978;8.982;2022-11-15T10:41:22;12.13;82.76
71047;SHT31;58703;48.978;8.982;2022-11-15T10:46:35;12.05;83.15
71047;SHT31;58703;48.978;8.982;2022-11-15T10:49:23;11.87;83.45
71047;SHT31;58703;48.978;8.982;2022-11-15T10:51:58;11.99;83.79
71047;SHT31;58703;48.978;8.982;2022-11-15T10:54:34;12.11;82.91
71047;SHT31;58703;48.978;8.982;2022-11-15T10:57:07;12.20;82.86
71047;SHT31;58703;48.978;8.982;2022-11-15T10:59:37;12.14;82.87
71047;SHT31;58703;48.978;8.982;2022-11-15T11:02:28;12.24;81.98
71047;SHT31;58703;48.978;8.982;2022-11-15T11:04:55;12.35;83.02
71047;SHT31;58703;48.978;8.982;2022-11-15T11:07:23;12.41;82.22
71047;SHT31;58703;48.978;8.982;2022-11-15T11:09:58;12.41;81.72
71047;SHT31;58703;48.978;8.982;2022-11-15T11:12:28;12.15;81.95
71047;SHT31;58703;48.978;8.982;2022-11-15T11:14:55;12.15;82.67
71047;SHT31;58703;48.978;8.982;2022-11-15T11:17:41;12.18;83.59
71047;SHT31;58703;48.978;8.982;2022-11-15T11:28:17;12.79;83.36
71047;SHT31;58703;48.978;8.982;2022-11-15T11:33:32;13.24;80.50
71047;SHT31;58703;48.978;8.982;2022-11-15T11:36:27;13.21;80.71
71047;SHT31;58703;48.978;8.982;2022-11-15T11:39:19;13.14;80.56
71047;SHT31;58703;48.978;8.982;2022-11-15T11:41:53;13.13;80.10
71047;SHT31;58703;48.978;8.982;2022-11-15T11:47:24;13.34;81.27
71047;SHT31;58703;48.978;8.982;2022-11-15T11:50:40;13.57;80.91
71047;SHT31;58703;48.978;8.982;2022-11-15T11:52:53;13.50;79.91
71047;SHT31;58703;48.978;8.982;2022-11-15T11:55:40;13.67;79.81
71047;SHT31;58703;48.978;8.982;2022-11-15T11:58:15;13.60;80.50
71047;SHT31;58703;48.978;8.982;2022-11-15T12:00:55;13.51;79.28
71047;SHT31;58703;48.978;8.982;2022-11-15T12:06:27;13.53;78.91
71047;SHT31;58703;48.978;8.982;2022-11-15T12:09:32;13.64;80.45
71047;SHT31;58703;48.978;8.982;2022-11-15T12:12:17;13.77;78.84
71047;SHT31;58703;48.978;8.982;2022-11-15T12:14:52;13.91;79.29
71047;SHT31;58703;48.978;8.982;2022-11-15T12:17:23;14.02;78.18
71047;SHT31;58703;48.978;8.982;2022-11-15T12:19:49;13.97;77.93
71047;SHT31;58703;48.978;8.982;2022-11-15T12:25:07;13.86;79.78
71047;SHT31;58703;48.978;8.982;2022-11-15T12:30:10;13.72;79.38
71047;SHT31;58703;48.978;8.982;2022-11-15T12:32:49;13.75;79.96
71047;SHT31;58703;48.978;8.982;2022-11-15T12:35:43;13.86;79.08
71047;SHT31;58703;48.978;8.982;2022-11-15T12:38:12;13.79;79.42
71047;SHT31;58703;48.978;8.982;2022-11-15T12:41:14;13.71;79.80
71047;SHT31;58703;48.978;8.982;2022-11-15T12:43:41;13.71;80.42
71047;SHT31;58703;48.978;8.982;2022-11-15T12:46:21;13.75;80.31
71047;SHT31;58703;48.978;8.982;2022-11-15T12:48:53;13.77;80.85
71047;SHT31;58703;48.978;8.982;2022-11-15T12:51:23;13.79;80.21
71047;SHT31;58703;48.978;8.982;2022-11-15T12:59:52;13.50;81.02
71047;SHT31;58703;48.978;8.982;2022-11-15T13:02:39;13.47;82.14
71047;SHT31;58703;48.978;8.982;2022-11-15T13:17:48;14.05;79.89
71047;SHT31;58703;48.978;8.982;2022-11-15T13:22:45;13.94;79.18
71047;SHT31;58703;48.978;8.982;2022-11-15T13:27:52;14.02;81.71
71047;SHT31;58703;48.978;8.982;2022-11-15T13:30:25;13.94;79.77
71047;SHT31;58703;48.978;8.982;2022-11-15T13:32:51;13.83;80.31
71047;SHT31;58703;48.978;8.982;2022-11-15T13:35:29;13.99;81.28
71047;SHT31;58703;48.978;8.982;2022-11-15T13:38:03;13.94;80.21
71047;SHT31;58703;48.978;8.982;2022-11-15T13:40:37;13.86;79.86
71047;SHT31;58703;48.978;8.982;2022-11-15T13:46:04;14.04;79.93
71047;SHT31;58703;48.978;8.982;2022-11-15T13:48:30;13.89;79.85
71047;SHT31;58703;48.978;8.982;2022-11-15T13:50:56;13.94;80.31
71047;SHT31;58703;48.978;8.982;2022-11-15T13:53:23;13.91;81.07
71047;SHT31;58703;48.978;8.982;2022-11-15T13:55:51;13.95;81.60
71047;SHT31;58703;48.978;8.982;2022-11-15T13:58:17;14.02;80.51
71047;SHT31;58703;48.978;8.982;2022-11-15T14:00:46;13.98;80.72
71047;SHT31;58703;48.978;8.982;2022-11-15T14:05:46;13.72;81.87
71047;SHT31;58703;48.978;8.982;2022-11-15T14:08:23;13.68;81.36
71047;SHT31;58703;48.978;8.982;2022-11-15T14:11:23;13.78;81.91
71047;SHT31;58703;48.978;8.982;2022-11-15T14:16:40;13.72;82.06
71047;SHT31;58703;48.978;8.982;2022-11-15T14:19:10;13.71;81.95
71047;SHT31;58703;48.978;8.982;2022-11-15T14:21:36;13.65;82.62
71047;SHT31;58703;48.978;8.982;2022-11-15T14:24:19;13.67;82.60
71047;SHT31;58703;48.978;8.982;2022-11-15T14:26:46;13.71;82.23
71047;SHT31;58703;48.978;8.982;2022-11-15T14:29:26;13.72;82.18
71047;SHT31;58703;48.978;8.982;2022-11-15T14:31:54;13.68;82.08
71047;SHT31;58703;48.978;8.982;2022-11-15T14:34:31;13.70;82.53
71047;SHT31;58703;48.978;8.982;2022-11-15T14:36:58;13.67;82.85
71047;SHT31;58703;48.978;8.982;2022-11-15T14:39:25;13.65;82.20
71047;SHT31;58703;48.978;8.982;2022-11-15T14:41:52;13.65;82.44
71047;SHT31;58703;48.978;8.982;2022-11-15T14:44:19;13.65;82.69
71047;SHT31;58703;48.978;8.982;2022-11-15T14:46:45;13.62;82.45
71047;SHT31;58703;48.978;8.982;2022-11-15T14:49:11;13.64;83.27
71047;SHT31;58703;48.978;8.982;2022-11-15T14:51:38;13.67;83.28
71047;SHT31;58703;48.978;8.982;2022-11-15T14:54:04;13.65;82.78
71047;SHT31;58703;48.978;8.982;2022-11-15T14:56:30;13.60;82.69
71047;SHT31;58703;48.978;8.982;2022-11-15T14:58:56;13.54;82.99
71047;SHT31;58703;48.978;8.982;2022-11-15T15:01:25;13.51;82.83
71047;SHT31;58703;48.978;8.982;2022-11-15T15:03:53;13.46;82.89
71047;SHT31;58703;48.978;8.982;2022-11-15T15:06:21;13.34;83.44
71047;SHT31;58703;48.978;8.982;2022-11-15T15:08:46;13.33;83.35
71047;SHT31;58703;48.978;8.982;2022-11-15T15:11:18;13.30;84.61
71047;SHT31;58703;48.978;8.982;2022-11-15T15:13:47;12.96;85.77
71047;SHT31;58703;48.978;8.982;2022-11-15T15:16:12;12.73;87.14
71047;SHT31;58703;48.978;8.982;2022-11-15T15:18:38;12.65;87.40
71047;SHT31;58703;48.978;8.982;2022-11-15T15:21:17;12.62;87.53
71047;SHT31;58703;48.978;8.982;2022-11-15T15:23:44;12.58;87.56
71047;SHT31;58703;48.978;8.982;2022-11-15T15:26:09;12.53;87.60
71047;SHT31;58703;48.978;8.982;2022-11-15T15:28:35;12.49;88.79
71047;SHT31;58703;48.978;8.982;2022-11-15T15:31:02;12.52;88.05
71047;SHT31;58703;48.978;8.982;2022-11-15T15:33:28;12.48;88.07
71047;SHT31;58703;48.978;8.982;2022-11-15T15:35:54;12.41;87.81
71047;SHT31;58703;48.978;8.982;2022-11-15T15:38:19;12.39;88.29
71047;SHT31;58703;48.978;8.982;2022-11-15T15:40:45;12.45;87.92
71047;SHT31;58703;48.978;8.982;2022-11-15T15:43:10;12.41;87.60
71047;SHT31;58703;48.978;8.982;2022-11-15T15:45:40;12.35;88.16
71047;SHT31;58703;48.978;8.982;2022-11-15T15:48:10;12.36;88.01
71047;SHT31;58703;48.978;8.982;2022-11-15T15:50:36;12.34;87.89
71047;SHT31;58703;48.978;8.982;2022-11-15T15:53:03;12.32;87.58
71047;SHT31;58703;48.978;8.982;2022-11-15T15:55:28;12.29;88.08
71047;SHT31;58703;48.978;8.982;2022-11-15T15:57:54;12.22;88.29
71047;SHT31;58703;48.978;8.982;2022-11-15T16:00:22;12.20;88.18
71047;SHT31;58703;48.978;8.982;2022-11-15T16:02:53;12.18;88.06
71047;SHT31;58703;48.978;8.982;2022-11-15T16:05:19;12.07;88.54
71047;SHT31;58703;48.978;8.982;2022-11-15T16:07:44;12.08;88.43
71047;SHT31;58703;48.978;8.982;2022-11-15T16:10:26;12.10;88.33
71047;SHT31;58703;48.978;8.982;2022-11-15T16:12:53;12.10;88.06
71047;SHT31;58703;48.978;8.982;2022-11-15T16:15:20;12.11;87.20
71047;SHT31;58703;48.978;8.982;2022-11-15T16:17:52;12.18;86.78
71047;SHT31;58703;48.978;8.982;2022-11-15T16:20:41;12.25;86.09
71047;SHT31;58703;48.978;8.982;2022-11-15T16:23:14;12.34;85.18
71047;SHT31;58703;48.978;8.982;2022-11-15T16:28:18;12.31;85.60
71047;SHT31;58703;48.978;8.982;2022-11-15T16:30:44;12.28;85.66
71047;SHT31;58703;48.978;8.982;2022-11-15T16:33:11;12.24;85.98
71047;SHT31;58703;48.978;8.982;2022-11-15T16:35:38;12.24;85.51
71047;SHT31;58703;48.978;8.982;2022-11-15T16:38:04;12.13;86.86
71047;SHT31;58703;48.978;8.982;2022-11-15T16:40:32;11.97;87.66
71047;SHT31;58703;48.978;8.982;2022-11-15T16:42:59;11.93;87.30
71047;SHT31;58703;48.978;8.982;2022-11-15T16:45:27;11.90;87.66
71047;SHT31;58703;48.978;8.982;2022-11-15T16:47:56;11.94;86.43
71047;SHT31;58703;48.978;8.982;2022-11-15T16:50:27;11.95;86.29
71047;SHT31;58703;48.978;8.982;2022-11-15T16:52:55;12.04;85.69
71047;SHT31;58703;48.978;8.982;2022-11-15T16:55:25;12.04;85.34
71047;SHT31;58703;48.978;8.982;2022-11-15T16:57:51;12.01;85.44
71047;SHT31;58703;48.978;8.982;2022-11-15T17:00:18;11.98;85.64
71047;SHT31;58703;48.978;8.982;2022-11-15T17:02:45;12.01;85.20
71047;SHT31;58703;48.978;8.982;2022-11-15T17:05:12;11.88;85.98
71047;SHT31;58703;48.978;8.982;2022-11-15T17:07:39;11.77;86.09
71047;SHT31;58703;48.978;8.982;2022-11-15T17:10:05;11.67;86.66
71047;SHT31;58703;48.978;8.982;2022-11-15T17:12:34;11.71;86.44
71047;SHT31;58703;48.978;8.982;2022-11-15T17:14:59;11.56;87.73
71047;SHT31;58703;48.978;8.982;2022-11-15T17:17:25;11.50;87.90
71047;SHT31;58703;48.978;8.982;2022-11-15T17:19:51;11.46;87.94
71047;SHT31;58703;48.978;8.982;2022-11-15T17:22:19;11.62;86.95
71047;SHT31;58703;48.978;8.982;2022-11-15T17:24:44;11.49;87.77
71047;SHT31;58703;48.978;8.982;2022-11-15T17:27:10;11.42;88.24
71047;SHT31;58703;48.978;8.982;2022-11-15T17:29:35;11.34;88.71
71047;SHT31;58703;48.978;8.982;2022-11-15T17:32:02;11.23;89.05
71047;SHT31;58703;48.978;8.982;2022-11-15T17:34:29;11.23;89.03